Ocean Atlantic — C6CB6 — position and weather

sailwx.info

Track history (hours):
 
Tides and Currents Weather Stations Pressure Air Temp Water Temp Dewpoint Dewpoint Depression Visibility Wind Speed Wind Dir Waves Ship Positions

Ocean Atlantic

Last reported at 2018-Feb-15 06:39 UTC. Time now 2018-Feb-19 08:19 UTC.
Position N 09°33' W 079°49'.

Length 140 m; draft 5.9 m.

Type: Passenger vessel. MMSI: 311000422.

Date/timePositionNaut miles runAvg speedWind from/ knotsBaromVisibWave heightAir tempDewpointWater temp
2018-Feb-15 06:39N 09°33' W 079°49'210.3
2018-Feb-15 06:30N 09°32' W 079°50'510.7
2018-Feb-15 06:00N 09°28' W 079°53'5 9.0
2018-Feb-15 05:30N 09°24' W 079°55'2 3.1
2018-Feb-15 04:58N 09°22' W 079°56'0 0.0
2018-Feb-15 04:28N 09°22' W 079°55'0 0.0
2018-Feb-15 03:58N 09°22' W 079°55'0 0.0
2018-Feb-15 03:28N 09°22' W 079°55'0 0.0
2018-Feb-15 02:58N 09°22' W 079°55'0 0.0
2018-Feb-15 02:28N 09°22' W 079°55'0 0.0
2018-Feb-15 01:58N 09°22' W 079°55'0 0.0
2018-Feb-15 01:28N 09°22' W 079°55'0 0.0
2018-Feb-15 00:58N 09°22' W 079°56'0 0.0
2018-Feb-15 00:28N 09°22' W 079°55'0 0.0
2018-Feb-14 23:58N 09°22' W 079°56'0 0.0
2018-Feb-14 23:28N 09°22' W 079°56'0 0.0
2018-Feb-14 22:58N 09°22' W 079°56'0 0.0
2018-Feb-14 22:28N 09°22' W 079°56'0 0.0
2018-Feb-14 21:58N 09°22' W 079°56'0 0.0
2018-Feb-14 21:28N 09°22' W 079°56'0 0.0
2018-Feb-14 20:58N 09°22' W 079°56'0 0.1
2018-Feb-14 20:28N 09°22' W 079°55'0 0.1
2018-Feb-14 19:55N 09°22' W 079°55'1 2.4
2018-Feb-14 19:30N 09°21' W 079°55'3 6.8
2018-Feb-14 19:00N 09°18' W 079°55'1 2.4
2018-Feb-14 18:30N 09°17' W 079°55'0 0.4
2018-Feb-14 18:00N 09°16' W 079°55'0 0.4
2018-Feb-14 17:31N 09°16' W 079°55'0 0.5
2018-Feb-14 16:59N 09°16' W 079°55'0 0.3
2018-Feb-14 16:30N 09°16' W 079°55'1 2.5
2018-Feb-14 16:00N 09°15' W 079°55'2 4.8
2018-Feb-14 15:30N 09°12' W 079°55'7 9.1
2018-Feb-14 14:45N 09°09' W 079°49'  
2018-Feb-11 01:30S 54°49' W 068°18'0 0.5
2018-Feb-11 00:53S 54°49' W 068°18'0 0.0
2018-Feb-11 00:23S 54°49' W 068°18'0 0.0
2018-Feb-10 22:53S 54°49' W 068°18'0 0.0
2018-Feb-10 22:11S 54°49' W 068°18'0 0.0
2018-Feb-10 20:14S 54°49' W 068°18'0 0.0
2018-Feb-10 19:56S 54°49' W 068°18'0 0.0
2018-Feb-10 12:11S 54°49' W 068°18'0 0.0
2018-Feb-10 11:59S 54°49' W 068°18'0 0.0
2018-Feb-10 11:29S 54°49' W 068°18'0 0.0
2018-Feb-10 10:53S 54°49' W 068°18'0 0.0
2018-Feb-10 10:23S 54°49' W 068°18'0 0.1
2018-Feb-10 09:59S 54°49' W 068°18'  
Track history (hours):
 
Tides and Currents Weather Stations Pressure Air Temp Water Temp Dewpoint Dewpoint Depression Visibility Wind Speed Wind Dir Waves Ship Positions

Ocean Atlantic

Last reported at 2018-Feb-15 06:39 UTC. Time now 2018-Feb-19 08:19 UTC.
Position N 09°33' W 079°49'.

Length 140 m; draft 5.9 m.

Type: Passenger vessel. MMSI: 311000422.

Date/timePositionNaut miles runAvg speedWind from/ knotsBaromVisibWave heightAir tempDewpointWater temp
2018-Feb-15 06:39N 09°33' W 079°49'210.3
2018-Feb-15 06:30N 09°32' W 079°50'510.7
2018-Feb-15 06:00N 09°28' W 079°53'5 9.0
2018-Feb-15 05:30N 09°24' W 079°55'2 3.1
2018-Feb-15 04:58N 09°22' W 079°56'0 0.0
2018-Feb-15 04:28N 09°22' W 079°55'0 0.0
2018-Feb-15 03:58N 09°22' W 079°55'0 0.0
2018-Feb-15 03:28N 09°22' W 079°55'0 0.0
2018-Feb-15 02:58N 09°22' W 079°55'0 0.0
2018-Feb-15 02:28N 09°22' W 079°55'0 0.0
2018-Feb-15 01:58N 09°22' W 079°55'0 0.0
2018-Feb-15 01:28N 09°22' W 079°55'0 0.0
2018-Feb-15 00:58N 09°22' W 079°56'0 0.0
2018-Feb-15 00:28N 09°22' W 079°55'0 0.0
2018-Feb-14 23:58N 09°22' W 079°56'0 0.0
2018-Feb-14 23:28N 09°22' W 079°56'0 0.0
2018-Feb-14 22:58N 09°22' W 079°56'0 0.0
2018-Feb-14 22:28N 09°22' W 079°56'0 0.0
2018-Feb-14 21:58N 09°22' W 079°56'0 0.0
2018-Feb-14 21:28N 09°22' W 079°56'0 0.0
2018-Feb-14 20:58N 09°22' W 079°56'0 0.1
2018-Feb-14 20:28N 09°22' W 079°55'0 0.1
2018-Feb-14 19:55N 09°22' W 079°55'1 2.4
2018-Feb-14 19:30N 09°21' W 079°55'3 6.8
2018-Feb-14 19:00N 09°18' W 079°55'1 2.4
2018-Feb-14 18:30N 09°17' W 079°55'0 0.4
2018-Feb-14 18:00N 09°16' W 079°55'0 0.4
2018-Feb-14 17:31N 09°16' W 079°55'0 0.5
2018-Feb-14 16:59N 09°16' W 079°55'0 0.3
2018-Feb-14 16:30N 09°16' W 079°55'1 2.5
2018-Feb-14 16:00N 09°15' W 079°55'2 4.8
2018-Feb-14 15:30N 09°12' W 079°55'7 9.1
2018-Feb-14 14:45N 09°09' W 079°49'  
2018-Feb-11 01:30S 54°49' W 068°18'0 0.5
2018-Feb-11 00:53S 54°49' W 068°18'0 0.0
2018-Feb-11 00:23S 54°49' W 068°18'0 0.0
2018-Feb-10 22:53S 54°49' W 068°18'0 0.0
2018-Feb-10 22:11S 54°49' W 068°18'0 0.0
2018-Feb-10 20:14S 54°49' W 068°18'0 0.0
2018-Feb-10 19:56S 54°49' W 068°18'0 0.0
2018-Feb-10 12:11S 54°49' W 068°18'0 0.0
2018-Feb-10 11:59S 54°49' W 068°18'0 0.0
2018-Feb-10 11:29S 54°49' W 068°18'0 0.0
2018-Feb-10 10:53S 54°49' W 068°18'0 0.0
2018-Feb-10 10:23S 54°49' W 068°18'0 0.1
2018-Feb-10 09:59S 54°49' W 068°18'  

Dump ship's entire track history